East Vineland, New Jersey
Current Conditions -  °F | °C
As of 2:54 PM on Saturday 25 Oct 2014 (Local Time) from KMIV Reporting Station
Clear Clear  
Wind Chill: 68°   Ceiling: Unl
Heat Index: 68°   Visibility: 10mi
Dew Point: 45°   Wind: 7mph
Humidity: 43%   Direction: NA
Pressure: 29.78"   Gusts: NA
Location:  39.5016°N, 75.0264°W
Report Text: KMIV 251854Z AUTO VRB06KT 10SM CLR 20/07 A2978 RMK AO2 SLP083 T02000072
Loading
Personal Weather Stations






























Interactive Weather Map
Tropical Storm Tracking
New forecast layout! Learn more

10-Day Weather Forecast

Advertisements
Track Severe Weather on mobile